createdAt,value
2022-11-24T00:01:54.404Z,41.50
2022-11-24T00:04:23.831Z,43.20
2022-11-24T00:06:56.522Z,54.50
2022-11-24T00:09:26.555Z,44.60
2022-11-24T00:11:57.091Z,46.40
2022-11-24T00:14:27.177Z,62.60
2022-11-24T00:16:57.825Z,64.10
2022-11-24T00:19:27.864Z,60.20
2022-11-24T00:21:57.000Z,65.90
2022-11-24T00:24:26.212Z,59.20
2022-11-24T00:26:55.881Z,61.40
2022-11-24T00:29:25.385Z,61.30
2022-11-24T00:31:57.628Z,56.20
2022-11-24T00:34:26.895Z,51.10
2022-11-24T00:36:57.350Z,50.80
2022-11-24T00:39:26.815Z,53.80
2022-11-24T00:41:56.649Z,52.30
2022-11-24T00:44:26.251Z,55.20
2022-11-24T00:46:56.843Z,54.50
2022-11-24T00:49:27.817Z,54.40
2022-11-24T00:51:58.327Z,53.20
2022-11-24T00:54:27.916Z,57.10
2022-11-24T00:56:56.766Z,54.60
2022-11-24T00:59:26.775Z,47.80
2022-11-24T01:01:56.751Z,49.90
2022-11-24T01:04:26.183Z,48.00
2022-11-24T01:06:56.508Z,45.20
2022-11-24T01:09:26.686Z,42.40
2022-11-24T01:12:04.727Z,31.90
2022-11-24T01:14:35.069Z,45.20
2022-11-24T01:17:05.494Z,48.50
2022-11-24T01:19:35.191Z,34.80
2022-11-24T01:22:04.831Z,29.60
2022-11-24T01:24:35.418Z,31.00
2022-11-24T01:27:06.584Z,35.20
2022-11-24T01:29:37.084Z,44.30
2022-11-24T01:32:08.279Z,43.40
2022-11-24T01:37:07.461Z,32.40
2022-11-24T01:39:37.476Z,42.40
2022-11-24T01:44:38.820Z,37.40
2022-11-24T01:47:33.743Z,42.30
2022-11-24T01:50:06.041Z,49.00
2022-11-24T01:52:43.113Z,34.30
2022-11-24T01:55:23.754Z,36.90
2022-11-24T01:58:20.230Z,36.50
2022-11-24T02:00:53.236Z,42.70
2022-11-24T02:03:28.550Z,40.30
2022-11-24T02:06:10.607Z,40.60
2022-11-24T02:08:48.192Z,38.60
2022-11-24T02:11:22.297Z,46.70
2022-11-24T02:13:55.510Z,37.90
2022-11-24T02:16:27.723Z,38.80
2022-11-24T02:18:59.875Z,39.10
2022-11-24T02:21:30.072Z,35.80
2022-11-24T02:24:40.831Z,41.40
2022-11-24T02:27:12.127Z,40.20
2022-11-24T02:29:43.590Z,37.30
2022-11-24T02:32:15.506Z,43.30
2022-11-24T02:34:47.157Z,34.10
2022-11-24T02:37:19.283Z,44.00
2022-11-24T02:39:51.228Z,52.10
2022-11-24T02:42:23.205Z,45.90
2022-11-24T02:44:59.834Z,44.30
2022-11-24T02:47:30.931Z,44.10
2022-11-24T02:50:01.080Z,41.70
2022-11-24T02:52:31.340Z,39.50
2022-11-24T02:55:03.236Z,39.90
2022-11-24T02:57:33.789Z,38.20
2022-11-24T03:00:05.295Z,35.40
2022-11-24T03:02:36.874Z,36.00
2022-11-24T03:05:08.063Z,36.80
2022-11-24T03:07:39.206Z,33.90
2022-11-24T03:10:13.107Z,32.40
2022-11-24T03:12:44.279Z,38.60
2022-11-24T03:15:15.083Z,35.90
2022-11-24T03:17:46.326Z,38.70
2022-11-24T03:20:16.108Z,37.80
2022-11-24T03:22:46.640Z,49.50
2022-11-24T03:25:17.218Z,43.00
2022-11-24T03:27:48.694Z,39.10
2022-11-24T03:30:19.007Z,42.10
2022-11-24T03:32:54.556Z,37.60
2022-11-24T03:35:27.209Z,35.60
2022-11-24T03:37:58.944Z,42.50
2022-11-24T03:40:30.064Z,37.50
2022-11-24T03:43:00.660Z,39.20
2022-11-24T03:48:21.906Z,32.10
2022-11-24T03:51:00.562Z,36.50
2022-11-24T03:53:32.454Z,33.50
2022-11-24T03:56:04.498Z,34.30
2022-11-24T03:58:34.558Z,26.90
2022-11-24T04:01:04.734Z,26.50
2022-11-24T04:06:03.732Z,27.90
2022-11-24T04:08:33.396Z,22.70
2022-11-24T04:11:02.869Z,25.50
2022-11-24T04:13:32.047Z,25.50
2022-11-24T04:16:01.314Z,25.00
2022-11-24T04:18:30.667Z,29.10
2022-11-24T04:21:00.561Z,26.50
2022-11-24T04:23:30.987Z,23.40
2022-11-24T04:26:00.775Z,25.80
2022-11-24T04:28:30.101Z,21.30
2022-11-24T04:31:04.329Z,21.70
2022-11-24T04:33:34.548Z,22.00
2022-11-24T04:36:05.293Z,24.40
2022-11-24T04:39:23.540Z,22.20
2022-11-24T04:41:27.064Z,24.50
2022-11-24T04:43:57.551Z,37.80
2022-11-24T04:46:27.755Z,30.50
2022-11-24T04:48:57.637Z,22.90
2022-11-24T04:51:26.675Z,21.50
2022-11-24T04:53:55.754Z,27.20
2022-11-24T04:56:25.479Z,26.20
2022-11-24T04:58:54.383Z,24.40
2022-11-24T05:01:24.306Z,28.40
2022-11-24T05:03:58.136Z,35.30
2022-11-24T05:06:27.683Z,49.50
2022-11-24T05:08:56.476Z,41.50
2022-11-24T05:11:25.675Z,41.40
2022-11-24T05:13:54.918Z,47.10
2022-11-24T05:16:24.123Z,59.90
2022-11-24T05:18:53.511Z,37.10
2022-11-24T05:21:22.968Z,40.00
2022-11-24T05:23:51.983Z,49.30
2022-11-24T05:26:21.165Z,38.90
2022-11-24T05:28:50.354Z,36.70
2022-11-24T05:31:19.476Z,36.70
2022-11-24T05:33:48.345Z,39.10
2022-11-24T05:36:35.872Z,40.70
2022-11-24T05:39:05.001Z,38.90
2022-11-24T05:41:34.396Z,27.20
2022-11-24T05:44:04.240Z,36.80
2022-11-24T05:46:34.259Z,31.50
2022-11-24T05:49:04.324Z,41.10
2022-11-24T05:51:33.925Z,35.80
2022-11-24T05:54:03.293Z,38.10
2022-11-24T05:56:32.873Z,35.00
2022-11-24T05:59:06.672Z,38.40
2022-11-24T06:01:39.158Z,43.60
2022-11-24T06:04:08.188Z,50.20
2022-11-24T06:06:38.016Z,53.80
2022-11-24T06:09:06.708Z,50.10
2022-11-24T06:11:36.007Z,31.60
2022-11-24T06:14:10.799Z,35.80
2022-11-24T06:16:41.357Z,42.80
2022-11-24T06:21:43.129Z,33.30
2022-11-24T06:24:12.026Z,34.00
2022-11-24T06:26:42.151Z,32.50
2022-11-24T06:29:11.450Z,34.50
2022-11-24T06:31:40.713Z,41.80
2022-11-24T06:34:13.970Z,43.50
2022-11-24T06:36:42.923Z,37.60
2022-11-24T06:39:11.926Z,37.10
2022-11-24T06:41:40.807Z,35.70
2022-11-24T06:44:09.708Z,31.80
2022-11-24T06:46:38.593Z,37.10
2022-11-24T06:49:08.200Z,45.00
2022-11-24T06:51:37.706Z,45.60
2022-11-24T06:54:07.603Z,39.50
2022-11-24T06:56:36.920Z,44.60
2022-11-24T06:59:06.320Z,36.20
2022-11-24T07:01:35.244Z,34.50
2022-11-24T07:04:04.919Z,37.10
2022-11-24T07:06:34.223Z,37.90
2022-11-24T07:09:03.111Z,38.00
2022-11-24T07:11:31.801Z,39.40
2022-11-24T07:14:00.594Z,37.20
2022-11-24T07:16:30.132Z,35.90
2022-11-24T07:19:00.019Z,40.70
2022-11-24T07:21:30.998Z,51.90
2022-11-24T07:24:00.250Z,44.00
2022-11-24T07:26:29.452Z,37.10
2022-11-24T07:28:58.016Z,36.40
2022-11-24T07:31:27.123Z,40.80
2022-11-24T07:33:56.414Z,41.40
2022-11-24T07:36:25.202Z,30.50
2022-11-24T07:38:54.605Z,39.50
2022-11-24T07:41:23.498Z,35.60
2022-11-24T07:43:53.342Z,27.30
2022-11-24T07:46:22.240Z,45.60
2022-11-24T07:48:50.874Z,36.40
2022-11-24T07:51:19.678Z,35.40
2022-11-24T07:53:48.458Z,41.10
2022-11-24T07:56:17.352Z,50.20
2022-11-24T07:58:51.340Z,53.20
2022-11-24T08:01:22.524Z,56.10
2022-11-24T08:03:51.621Z,61.90
2022-11-24T08:06:25.440Z,54.90
2022-11-24T08:08:57.465Z,51.00
2022-11-24T08:11:26.761Z,52.90
2022-11-24T08:13:55.965Z,55.40
2022-11-24T08:16:24.689Z,52.80
2022-11-24T08:18:55.901Z,41.70
2022-11-24T08:21:25.607Z,47.30
2022-11-24T08:23:58.286Z,52.50
2022-11-24T08:26:27.695Z,38.20
2022-11-24T08:28:58.730Z,37.60
2022-11-24T08:31:34.120Z,35.70
2022-11-24T08:34:04.746Z,31.20
2022-11-24T08:36:34.509Z,19.90
2022-11-24T08:39:04.114Z,15.20
2022-11-24T08:41:33.458Z,18.60
2022-11-24T08:44:02.055Z,17.20
2022-11-24T08:46:30.787Z,19.70
2022-11-24T08:48:59.952Z,13.10
2022-11-24T08:51:29.421Z,15.30
2022-11-24T08:54:00.327Z,15.10
2022-11-24T08:56:31.266Z,14.90
2022-11-24T08:59:01.042Z,14.00
2022-11-24T09:01:30.227Z,13.10
2022-11-24T09:03:59.028Z,14.70
2022-11-24T09:06:32.759Z,13.40
2022-11-24T09:09:02.998Z,10.80
2022-11-24T09:11:34.712Z,13.00
2022-11-24T09:14:04.551Z,11.00
2022-11-24T09:16:33.910Z,12.50
2022-11-24T09:19:05.740Z,13.10
2022-11-24T09:21:38.176Z,12.50
2022-11-24T09:24:08.222Z,11.70
2022-11-24T09:26:41.883Z,11.70
2022-11-24T09:29:14.159Z,10.20
2022-11-24T09:31:42.784Z,11.40
2022-11-24T09:34:14.633Z,10.10
2022-11-24T09:36:43.503Z,9.30
2022-11-24T09:39:12.506Z,9.60
2022-11-24T09:42:01.683Z,12.60
2022-11-24T09:44:54.467Z,12.70
2022-11-24T09:47:57.004Z,10.00
2022-11-24T09:50:35.807Z,10.20
2022-11-24T09:53:39.461Z,9.00
2022-11-24T09:56:26.733Z,9.50
2022-11-24T09:59:03.216Z,7.60
2022-11-24T10:01:37.435Z,9.30
2022-11-24T10:04:34.575Z,9.60
2022-11-24T10:07:12.385Z,10.40
2022-11-24T10:10:11.504Z,12.50
2022-11-24T10:13:04.133Z,8.80
2022-11-24T10:15:38.589Z,8.30
2022-11-24T10:18:16.963Z,7.20
2022-11-24T10:21:04.819Z,6.70
2022-11-24T10:23:59.602Z,6.40
2022-11-24T10:26:38.931Z,5.60
2022-11-24T10:29:41.101Z,6.70
2022-11-24T10:32:39.308Z,6.70
2022-11-24T10:35:21.896Z,6.30
2022-11-24T10:38:14.396Z,6.20
2022-11-24T10:40:56.923Z,6.20
2022-11-24T10:43:29.701Z,6.40
2022-11-24T10:46:12.614Z,5.90
2022-11-24T10:48:48.504Z,6.10
2022-11-24T10:51:43.122Z,6.30
2022-11-24T10:54:22.429Z,7.20
2022-11-24T10:56:53.000Z,6.00
2022-11-24T10:59:27.162Z,5.70
2022-11-24T11:01:56.567Z,5.90
2022-11-24T11:04:32.019Z,4.20
2022-11-24T11:07:25.540Z,5.20
2022-11-24T11:10:23.524Z,4.50
2022-11-24T11:12:52.062Z,4.90
2022-11-24T11:15:31.764Z,5.10
2022-11-24T11:18:01.558Z,4.00
2022-11-24T11:20:33.112Z,5.10
2022-11-24T11:23:14.638Z,5.10
2022-11-24T11:25:43.941Z,6.10
2022-11-24T11:28:25.825Z,5.90
2022-11-24T11:31:22.105Z,5.80
2022-11-24T11:34:06.391Z,4.30
2022-11-24T11:36:46.150Z,4.80
2022-11-24T11:39:23.555Z,4.10
2022-11-24T11:42:25.743Z,4.30
2022-11-24T11:45:11.525Z,4.60
2022-11-24T11:48:00.409Z,4.00
2022-11-24T11:53:45.364Z,5.10
2022-11-24T11:56:30.856Z,4.50
2022-11-24T11:58:59.506Z,5.10
2022-11-24T12:01:46.529Z,4.20
2022-11-24T12:04:24.778Z,4.50
2022-11-24T12:07:19.456Z,5.90
2022-11-24T12:09:48.217Z,7.20
2022-11-24T12:12:30.885Z,4.60
2022-11-24T12:15:27.261Z,5.30
2022-11-24T12:18:56.385Z,3.70
2022-11-24T12:21:30.436Z,4.10
2022-11-24T12:24:33.330Z,3.80
2022-11-24T12:27:19.339Z,5.60
2022-11-24T12:30:12.714Z,4.00
2022-11-24T12:35:51.407Z,4.00
2022-11-24T12:38:51.180Z,4.20
2022-11-24T12:44:52.851Z,4.30
2022-11-24T12:47:44.680Z,4.60
2022-11-24T12:50:21.696Z,5.10
2022-11-24T12:53:22.603Z,4.30
2022-11-24T12:55:52.567Z,4.00
2022-11-24T12:58:45.980Z,5.10
2022-11-24T13:01:21.920Z,5.10
2022-11-24T13:04:19.184Z,4.80
2022-11-24T13:06:59.753Z,4.70
2022-11-24T13:09:28.285Z,4.90
2022-11-24T13:12:13.710Z,5.50
2022-11-24T13:14:45.063Z,5.00
2022-11-24T13:17:52.455Z,5.20
2022-11-24T13:20:39.481Z,4.80
2022-11-24T13:23:24.050Z,5.00
2022-11-24T13:26:15.959Z,4.80
2022-11-24T13:29:18.006Z,4.60
2022-11-24T13:32:02.852Z,4.40
2022-11-24T13:34:43.208Z,5.70
2022-11-24T13:37:26.397Z,4.70
2022-11-24T13:40:02.842Z,5.20
2022-11-24T13:42:41.586Z,5.90
2022-11-24T13:45:51.930Z,8.30
2022-11-24T13:48:20.968Z,5.40
2022-11-24T13:50:50.319Z,5.60
2022-11-24T13:53:40.560Z,5.00
2022-11-24T13:56:17.581Z,5.70
2022-11-24T13:58:58.724Z,5.80
2022-11-24T14:01:32.597Z,6.30
2022-11-24T14:04:36.259Z,6.10
2022-11-24T14:07:13.376Z,4.30
2022-11-24T14:09:51.505Z,4.90
2022-11-24T14:12:27.045Z,5.50
2022-11-24T14:15:20.942Z,5.70
2022-11-24T14:17:49.655Z,7.10
2022-11-24T14:20:27.517Z,4.70
2022-11-24T14:22:56.102Z,4.70
2022-11-24T14:25:31.787Z,4.50
2022-11-24T14:28:00.840Z,3.80
2022-11-24T14:30:29.731Z,4.20
2022-11-24T14:33:01.005Z,4.50
2022-11-24T14:35:33.797Z,4.70
2022-11-24T14:38:05.931Z,4.70
2022-11-24T14:40:45.177Z,15.70
2022-11-24T14:43:34.851Z,5.00
2022-11-24T14:46:09.455Z,4.70
2022-11-24T14:48:39.526Z,6.20
2022-11-24T14:51:10.911Z,8.00
2022-11-24T14:53:44.012Z,6.30
2022-11-24T14:56:32.193Z,15.30
2022-11-24T14:59:01.015Z,26.80
2022-11-24T15:01:29.872Z,17.40
2022-11-24T15:04:46.336Z,9.20
2022-11-24T15:07:29.318Z,11.80
2022-11-24T15:10:00.965Z,7.20
2022-11-24T15:12:51.546Z,6.90
2022-11-24T15:15:22.576Z,5.80
2022-11-24T15:17:56.466Z,5.80
2022-11-24T15:20:32.310Z,7.30
2022-11-24T15:23:28.337Z,6.10
2022-11-24T15:26:02.671Z,4.50
2022-11-24T15:28:31.543Z,4.80
2022-11-24T15:31:02.244Z,5.70
2022-11-24T15:33:31.862Z,7.00
2022-11-24T15:36:00.647Z,9.90
2022-11-24T15:38:29.709Z,11.60
2022-11-24T15:41:00.692Z,8.70
2022-11-24T15:43:29.554Z,10.80
2022-11-24T15:45:59.438Z,13.80
2022-11-24T15:48:29.103Z,19.30
2022-11-24T15:50:59.169Z,23.50
2022-11-24T15:53:39.054Z,20.80
2022-11-24T15:56:12.865Z,16.40
2022-11-24T15:58:41.454Z,16.20
2022-11-24T16:01:09.968Z,18.60
2022-11-24T16:03:46.814Z,14.50
2022-11-24T16:06:24.787Z,21.30
2022-11-24T16:08:54.864Z,17.20
2022-11-24T16:11:23.611Z,15.20
2022-11-24T16:13:54.045Z,12.90
2022-11-24T16:16:25.618Z,13.70
2022-11-24T16:18:54.387Z,12.70
2022-11-24T16:21:23.581Z,14.50
2022-11-24T16:23:52.074Z,13.50
2022-11-24T16:26:20.602Z,16.30
2022-11-24T16:28:48.977Z,16.50
2022-11-24T16:31:18.776Z,13.10
2022-11-24T16:33:47.470Z,16.30
2022-11-24T16:36:15.915Z,13.60
2022-11-24T16:38:44.740Z,13.60
2022-11-24T16:41:13.399Z,11.20
2022-11-24T16:43:42.510Z,19.30
2022-11-24T16:46:17.309Z,16.10
2022-11-24T16:48:48.339Z,20.60
2022-11-24T16:51:18.374Z,13.80
2022-11-24T16:53:47.565Z,12.40
2022-11-24T16:56:16.832Z,9.50
2022-11-24T16:58:45.945Z,6.00
2022-11-24T17:01:14.651Z,6.90
2022-11-24T17:03:43.642Z,8.20
2022-11-24T17:06:16.352Z,6.20
2022-11-24T17:08:46.824Z,6.00
2022-11-24T17:11:20.944Z,8.70
2022-11-24T17:13:49.871Z,10.20
2022-11-24T17:16:20.907Z,9.60
2022-11-24T17:18:53.165Z,11.40
2022-11-24T17:21:24.117Z,13.60
2022-11-24T17:23:57.760Z,12.90
2022-11-24T17:26:27.865Z,13.20
2022-11-24T17:28:56.513Z,14.10
2022-11-24T17:31:26.089Z,21.90
2022-11-24T17:33:59.456Z,27.20
2022-11-24T17:36:28.842Z,16.20
2022-11-24T17:38:59.851Z,11.20
2022-11-24T17:41:28.371Z,9.10
2022-11-24T17:43:57.202Z,8.10
2022-11-24T17:46:27.473Z,6.00
2022-11-24T17:48:57.133Z,7.20
2022-11-24T17:51:26.901Z,11.30
2022-11-24T17:53:57.572Z,9.00
2022-11-24T17:56:29.260Z,10.60
2022-11-24T17:59:00.524Z,11.00
2022-11-24T18:01:30.378Z,10.40
2022-11-24T18:03:59.441Z,10.40
2022-11-24T18:06:29.134Z,10.60
2022-11-24T18:08:58.463Z,8.50
2022-11-24T18:11:31.984Z,8.20
2022-11-24T18:14:03.489Z,9.20
2022-11-24T18:16:34.421Z,9.80
2022-11-24T18:19:09.174Z,13.40
2022-11-24T18:21:40.661Z,11.40
2022-11-24T18:24:11.206Z,10.40
2022-11-24T18:26:42.695Z,12.50
2022-11-24T18:29:11.720Z,12.90
2022-11-24T18:31:40.745Z,11.90
2022-11-24T18:34:09.732Z,11.80
2022-11-24T18:36:38.299Z,11.10
2022-11-24T18:39:09.208Z,9.40
2022-11-24T18:41:39.686Z,8.80
2022-11-24T18:44:09.493Z,9.00
2022-11-24T18:46:38.778Z,12.70
2022-11-24T18:49:07.870Z,9.70
2022-11-24T18:51:36.582Z,11.30
2022-11-24T18:54:05.688Z,14.90
2022-11-24T18:56:34.367Z,23.80
2022-11-24T18:59:02.846Z,24.40
2022-11-24T19:01:32.607Z,27.00
2022-11-24T19:04:03.410Z,24.90
2022-11-24T19:06:37.183Z,22.40
2022-11-24T19:09:09.322Z,15.20
2022-11-24T19:11:39.983Z,15.70
2022-11-24T19:14:12.544Z,16.90
2022-11-24T19:16:41.885Z,15.30
2022-11-24T19:19:14.254Z,14.00
2022-11-24T19:21:45.369Z,17.70
2022-11-24T19:24:13.954Z,12.00
2022-11-24T19:26:42.752Z,12.50
2022-11-24T19:29:11.188Z,12.00
2022-11-24T19:31:39.964Z,12.60
2022-11-24T19:34:08.596Z,12.60
2022-11-24T19:36:37.599Z,12.60
2022-11-24T19:39:06.876Z,10.50
2022-11-24T19:41:35.868Z,13.70
2022-11-24T19:44:04.518Z,11.30
2022-11-24T19:46:33.649Z,14.00
2022-11-24T19:49:02.830Z,12.90
2022-11-24T19:51:37.457Z,19.30
2022-11-24T19:54:08.638Z,43.30
2022-11-24T19:56:37.601Z,44.80
2022-11-24T19:59:07.015Z,24.90
2022-11-24T20:01:39.082Z,16.30
2022-11-24T20:04:11.847Z,15.20
2022-11-24T20:06:42.442Z,15.00
2022-11-24T20:09:13.942Z,33.90
2022-11-24T20:11:43.381Z,97.60
2022-11-24T20:14:14.073Z,129.10
2022-11-24T20:16:43.937Z,191.00
2022-11-24T20:19:14.854Z,189.90
2022-11-24T20:21:46.655Z,78.40
2022-11-24T20:24:22.698Z,23.00
2022-11-24T20:27:01.372Z,14.20
2022-11-24T20:29:32.444Z,10.20
2022-11-24T20:32:01.179Z,10.10
2022-11-24T20:34:29.852Z,8.40
2022-11-24T20:36:58.517Z,11.90
2022-11-24T20:39:28.042Z,9.50
2022-11-24T20:41:57.273Z,11.70
2022-11-24T20:44:27.601Z,10.40
2022-11-24T20:49:32.626Z,13.00
2022-11-24T20:52:02.068Z,10.20
2022-11-24T20:54:30.903Z,13.00
2022-11-24T20:56:59.400Z,12.70
2022-11-24T20:59:28.094Z,13.00
2022-11-24T21:01:57.542Z,13.20
2022-11-24T21:04:27.322Z,12.00
2022-11-24T21:06:56.786Z,11.90
2022-11-24T21:09:27.686Z,9.60
2022-11-24T21:11:56.352Z,7.10
2022-11-24T21:14:24.900Z,7.60
2022-11-24T21:16:53.610Z,7.40
2022-11-24T21:19:22.405Z,10.40
2022-11-24T21:21:51.033Z,9.90
2022-11-24T21:24:21.974Z,7.10
2022-11-24T21:26:53.012Z,8.70
2022-11-24T21:29:23.772Z,9.60
2022-11-24T21:31:52.996Z,9.60
2022-11-24T21:34:21.809Z,10.30
2022-11-24T21:36:50.426Z,11.90
2022-11-24T21:39:19.376Z,12.40
2022-11-24T21:41:48.424Z,10.00
2022-11-24T21:44:16.973Z,11.30
2022-11-24T21:46:51.169Z,7.60
2022-11-24T21:49:24.517Z,11.30
2022-11-24T21:51:56.124Z,16.40
2022-11-24T21:54:25.216Z,10.50
2022-11-24T21:56:54.386Z,10.50
2022-11-24T21:59:23.017Z,7.00
2022-11-24T22:01:51.702Z,7.40
2022-11-24T22:04:20.338Z,9.00
2022-11-24T22:06:49.025Z,9.80
2022-11-24T22:09:18.440Z,9.00
2022-11-24T22:11:52.818Z,9.10
2022-11-24T22:14:21.566Z,7.60
2022-11-24T22:16:50.404Z,8.70
2022-11-24T22:19:19.193Z,10.50
2022-11-24T22:21:48.136Z,11.80
2022-11-24T22:24:16.750Z,8.70
2022-11-24T22:26:45.311Z,8.70
2022-11-24T22:29:14.033Z,6.60
2022-11-24T22:31:43.677Z,7.10
2022-11-24T22:34:12.314Z,8.90
2022-11-24T22:36:40.870Z,8.90
2022-11-24T22:39:12.365Z,8.60
2022-11-24T22:41:40.966Z,9.60
2022-11-24T22:44:09.749Z,9.80
2022-11-24T22:46:38.439Z,14.40
2022-11-24T22:49:07.413Z,14.00
2022-11-24T22:51:39.001Z,16.90
2022-11-24T22:54:07.588Z,16.60
2022-11-24T22:56:36.322Z,13.60
2022-11-24T22:59:04.977Z,13.00
2022-11-24T23:01:34.482Z,16.30
2022-11-24T23:04:04.293Z,14.30
2022-11-24T23:06:34.380Z,14.40
2022-11-24T23:09:05.024Z,11.70
2022-11-24T23:11:39.915Z,13.60
2022-11-24T23:14:14.278Z,15.10
2022-11-24T23:16:43.940Z,13.80
2022-11-24T23:19:13.176Z,13.00
2022-11-24T23:21:41.853Z,10.90
2022-11-24T23:24:11.511Z,12.00
2022-11-24T23:26:41.908Z,9.80
2022-11-24T23:29:11.847Z,8.10
2022-11-24T23:31:40.833Z,7.90
2022-11-24T23:34:10.487Z,8.10
2022-11-24T23:36:39.184Z,9.10
2022-11-24T23:39:13.014Z,8.90
2022-11-24T23:41:41.729Z,11.20
2022-11-24T23:44:10.593Z,9.80
2022-11-24T23:46:39.441Z,15.60
2022-11-24T23:49:08.141Z,13.80
2022-11-24T23:51:36.904Z,10.80
2022-11-24T23:54:10.010Z,10.10
2022-11-24T23:56:39.022Z,12.40
2022-11-24T23:59:10.794Z,19.40
